Time;durP1;ratioP1;P1;durP2;ratioP2;P2;SDS_P1;SDS_P2;PMS_P1;PMS_P2;Temp;Humidity;BMP_temperature;BMP_pressure;BME280_temperature;BME280_humidity;BME280_pressure;Samples;Min_cycle;Max_cycle;Signal;HPM_P1;HPM_P2
2021/01/02 00:00:43;;;;;;;13.50;11.85;;;;;;;;;;5090523;28;20451;-80
2021/01/02 00:03:32;;;;;;;12.87;11.57;;;;;;;;;;5090438;28;20476;-81
2021/01/02 00:06:01;;;;;;;12.80;11.30;;;;;;;;;;5073587;28;20575;-81
2021/01/02 00:08:29;;;;;;;12.33;11.03;;;;;;;;;;5092119;28;20408;-81
2021/01/02 00:11:13;;;;;;;12.02;10.48;;;;;;;;;;5073450;28;20372;-83
2021/01/02 00:13:58;;;;;;;11.43;10.32;;;;;;;;;;5070856;28;20368;-82
2021/01/02 00:16:51;;;;;;;12.18;10.88;;;;;;;;;;5092398;28;20379;-82
2021/01/02 00:19:36;;;;;;;12.10;10.80;;;;;;;;;;5091506;28;20352;-81
2021/01/02 00:22:03;;;;;;;10.77;9.68;;;;;;;;;;5073933;28;20368;-82
2021/01/02 00:24:36;;;;;;;12.40;10.43;;;;;;;;;;5092943;28;20465;-82
2021/01/02 00:27:04;;;;;;;10.73;9.60;;;;;;;;;;5074388;28;20376;-80
2021/01/02 00:29:37;;;;;;;14.85;10.02;;;;;;;;;;5091759;28;20357;-81
2021/01/02 00:32:12;;;;;;;11.77;9.52;;;;;;;;;;5091198;28;20371;-81
2021/01/02 00:34:51;;;;;;;10.45;9.43;;;;;;;;;;5071564;28;20414;-82
2021/01/02 00:37:36;;;;;;;11.40;10.20;;;;;;;;;;5073739;28;20375;-82
2021/01/02 00:40:02;;;;;;;11.18;9.85;;;;;;;;;;5088425;28;20360;-81
2021/01/02 00:42:28;;;;;;;11.30;10.18;;;;;;;;;;5072686;28;20372;-80
2021/01/02 00:44:57;;;;;;;11.32;10.20;;;;;;;;;;5073569;28;20393;-81
2021/01/02 00:47:26;;;;;;;11.48;10.13;;;;;;;;;;5093564;28;20369;-82
2021/01/02 00:49:54;;;;;;;13.20;10.85;;;;;;;;;;5075804;28;20372;-80
2021/01/02 00:52:20;;;;;;;10.90;9.77;;;;;;;;;;5083202;28;20360;-80
2021/01/02 00:55:05;;;;;;;12.65;11.02;;;;;;;;;;5075150;28;20735;-81
2021/01/02 00:57:44;;;;;;;12.07;10.80;;;;;;;;;;5093393;28;20387;-81
2021/01/02 01:00:11;;;;;;;12.00;10.63;;;;;;;;;;5074245;28;20843;-80
2021/01/02 01:02:40;;;;;;;12.80;10.75;;;;;;;;;;5092657;28;20376;-80
2021/01/02 01:05:06;;;;;;;13.27;10.68;;;;;;;;;;5073977;28;20442;-81
2021/01/02 01:07:33;;;;;;;14.13;11.50;;;;;;;;;;5073383;28;20365;-81
2021/01/02 01:10:00;;;;;;;13.70;11.33;;;;;;;;;;5073639;28;20891;-80
2021/01/02 01:12:28;;;;;;;15.23;12.10;;;;;;;;;;5074202;28;20400;-81
2021/01/02 01:14:54;;;;;;;15.50;12.25;;;;;;;;;;5091950;28;20361;-81
2021/01/02 01:17:22;;;;;;;17.48;12.77;;;;;;;;;;5092116;28;20406;-80
2021/01/02 01:19:52;;;;;;;16.00;12.38;;;;;;;;;;5073960;28;20381;-81
2021/01/02 01:22:20;;;;;;;20.38;14.00;;;;;;;;;;5074474;28;20356;-80
2021/01/02 01:24:55;;;;;;;19.15;14.75;;;;;;;;;;5092031;28;20387;-80
2021/01/02 01:27:21;;;;;;;22.60;16.00;;;;;;;;;;5074408;28;20376;-81
2021/01/02 01:29:47;;;;;;;22.35;15.18;;;;;;;;;;5073851;28;20376;-81
2021/01/02 01:32:16;;;;;;;21.50;14.70;;;;;;;;;;5073972;28;20459;-81
2021/01/02 01:34:45;;;;;;;15.90;13.03;;;;;;;;;;5092281;28;20360;-81
2021/01/02 01:37:14;;;;;;;18.63;14.52;;;;;;;;;;5073840;28;20412;-80
2021/01/02 01:39:46;;;;;;;17.33;14.18;;;;;;;;;;5073487;28;20375;-81
2021/01/02 01:42:13;;;;;;;16.53;12.80;;;;;;;;;;5073796;28;20448;-81
2021/01/02 01:44:43;;;;;;;14.45;12.32;;;;;;;;;;5073888;28;20415;-82
2021/01/02 01:47:14;;;;;;;14.27;12.23;;;;;;;;;;5073677;28;20365;-80
2021/01/02 01:49:40;;;;;;;13.90;12.07;;;;;;;;;;5073247;28;20473;-81
2021/01/02 01:52:13;;;;;;;13.90;11.90;;;;;;;;;;5092077;28;20379;-80
2021/01/02 01:54:57;;;;;;;13.98;12.13;;;;;;;;;;5073756;28;20375;-81
2021/01/02 01:57:25;;;;;;;16.70;13.38;;;;;;;;;;5073394;28;20437;-80
2021/01/02 01:59:56;;;;;;;16.40;13.10;;;;;;;;;;5091202;28;20372;-81
2021/01/02 02:02:41;;;;;;;19.00;14.20;;;;;;;;;;5073180;28;20883;-80
2021/01/02 02:05:09;;;;;;;18.42;13.98;;;;;;;;;;5073120;28;20423;-79
2021/01/02 02:07:55;;;;;;;19.13;15.13;;;;;;;;;;5073268;28;20379;-81
2021/01/02 02:10:47;;;;;;;22.60;17.05;;;;;;;;;;5073976;28;20383;-80
2021/01/02 02:13:15;;;;;;;25.77;18.23;;;;;;;;;;5086214;28;20442;-81
2021/01/02 02:15:49;;;;;;;23.90;18.42;;;;;;;;;;5090965;28;20364;-81
2021/01/02 02:18:18;;;;;;;26.50;19.10;;;;;;;;;;5090975;28;20443;-81
2021/01/02 02:20:46;;;;;;;26.27;18.55;;;;;;;;;;5072552;28;20459;-81
2021/01/02 02:23:14;;;;;;;21.05;16.40;;;;;;;;;;5090987;28;20439;-81
2021/01/02 02:25:47;;;;;;;22.90;16.60;;;;;;;;;;5072581;28;20950;-81
2021/01/02 02:28:32;;;;;;;29.40;18.80;;;;;;;;;;5090778;28;20908;-81
2021/01/02 02:31:00;;;;;;;31.40;20.97;;;;;;;;;;5072477;28;20361;-81
2021/01/02 02:33:27;;;;;;;60.33;33.25;;;;;;;;;;5072585;28;20352;-81
2021/01/02 02:35:54;;;;;;;88.63;46.58;;;;;;;;;;5072583;28;20452;-80
2021/01/02 02:38:21;;;;;;;60.58;35.85;;;;;;;;;;5072809;28;20389;-80
2021/01/02 02:40:47;;;;;;;71.70;39.72;;;;;;;;;;5072576;28;20369;-81
2021/01/02 02:43:15;;;;;;;64.47;34.97;;;;;;;;;;5072569;28;20373;-80
2021/01/02 02:45:41;;;;;;;64.40;36.55;;;;;;;;;;5072757;28;20487;-81
2021/01/02 02:48:14;;;;;;;63.80;35.50;;;;;;;;;;5073182;28;20506;-81
2021/01/02 02:50:42;;;;;;;38.77;25.10;;;;;;;;;;5072358;28;20353;-81
2021/01/02 02:53:10;;;;;;;37.63;23.80;;;;;;;;;;5091080;28;20775;-81
2021/01/02 02:55:40;;;;;;;53.87;31.20;;;;;;;;;;5072832;28;20599;-81
2021/01/02 02:58:06;;;;;;;49.75;29.27;;;;;;;;;;5072998;28;20858;-81
2021/01/02 03:00:32;;;;;;;49.15;30.10;;;;;;;;;;5072491;28;20401;-81
2021/01/02 03:02:58;;;;;;;42.13;25.00;;;;;;;;;;5072690;28;20408;-80
2021/01/02 03:05:24;;;;;;;42.22;25.63;;;;;;;;;;5074766;28;20404;-81
2021/01/02 03:07:51;;;;;;;45.10;26.83;;;;;;;;;;5094561;28;20406;-81
2021/01/02 03:10:18;;;;;;;42.73;25.80;;;;;;;;;;5076684;28;20370;-81
2021/01/02 03:12:45;;;;;;;51.83;30.25;;;;;;;;;;5076449;28;20422;-81
2021/01/02 03:15:12;;;;;;;49.70;31.10;;;;;;;;;;5076966;28;20373;-81
2021/01/02 03:17:40;;;;;;;47.10;28.95;;;;;;;;;;5094683;28;20360;-81
2021/01/02 03:20:06;;;;;;;44.20;27.65;;;;;;;;;;5076144;28;20372;-81
2021/01/02 03:22:32;;;;;;;47.40;26.40;;;;;;;;;;5075865;28;20371;-81
2021/01/02 03:24:58;;;;;;;44.08;26.38;;;;;;;;;;5094431;28;20392;-81
2021/01/02 03:27:24;;;;;;;41.22;25.50;;;;;;;;;;5093973;28;20364;-82
2021/01/02 03:29:50;;;;;;;39.10;22.25;;;;;;;;;;5075852;28;20403;-82
2021/01/02 03:32:16;;;;;;;41.65;23.05;;;;;;;;;;5075880;28;20400;-81
2021/01/02 03:34:42;;;;;;;39.75;20.40;;;;;;;;;;5094020;28;20774;-81
2021/01/02 03:37:09;;;;;;;46.03;23.05;;;;;;;;;;5076157;28;20368;-81
2021/01/02 03:39:35;;;;;;;34.70;19.58;;;;;;;;;;5094138;28;20360;-81
2021/01/02 03:42:01;;;;;;;31.80;18.67;;;;;;;;;;5075857;28;20447;-82
2021/01/02 03:44:27;;;;;;;37.30;20.07;;;;;;;;;;5075719;28;20396;-82
2021/01/02 03:46:53;;;;;;;56.45;25.92;;;;;;;;;;5096308;28;20707;-81
2021/01/02 03:49:19;;;;;;;38.20;21.02;;;;;;;;;;5075641;28;20396;-81
2021/01/02 03:51:45;;;;;;;34.55;18.42;;;;;;;;;;5075788;28;20364;-81
2021/01/02 03:54:11;;;;;;;35.60;18.88;;;;;;;;;;5075715;28;20433;-81
2021/01/02 03:56:37;;;;;;;28.75;17.77;;;;;;;;;;5093845;28;20353;-82
2021/01/02 03:59:03;;;;;;;24.02;16.10;;;;;;;;;;5093550;28;20719;-81
2021/01/02 04:01:29;;;;;;;20.97;15.27;;;;;;;;;;5093627;28;20851;-81
2021/01/02 04:03:55;;;;;;;22.27;16.35;;;;;;;;;;5075761;28;20365;-82
2021/01/02 04:06:25;;;;;;;19.83;15.88;;;;;;;;;;5075010;28;20419;-82
2021/01/02 04:08:51;;;;;;;18.13;15.05;;;;;;;;;;5075566;28;20490;-81
2021/01/02 04:11:17;;;;;;;19.48;15.35;;;;;;;;;;5075189;28;20380;-81
2021/01/02 04:13:43;;;;;;;19.73;16.00;;;;;;;;;;5093529;28;20367;-82
2021/01/02 04:16:09;;;;;;;21.17;17.30;;;;;;;;;;5092147;28;20360;-81
2021/01/02 04:18:35;;;;;;;22.37;17.37;;;;;;;;;;5075371;28;20448;-82
2021/01/02 04:21:01;;;;;;;21.88;16.90;;;;;;;;;;5075080;28;20447;-82
2021/01/02 04:23:27;;;;;;;20.20;16.48;;;;;;;;;;5075392;28;20457;-82
2021/01/02 04:25:53;;;;;;;21.13;16.87;;;;;;;;;;5075041;28;20411;-82
2021/01/02 04:28:19;;;;;;;19.50;16.95;;;;;;;;;;5075166;28;20368;-81
2021/01/02 04:30:46;;;;;;;18.63;16.60;;;;;;;;;;5075095;28;20361;-81
2021/01/02 04:33:12;;;;;;;20.17;16.35;;;;;;;;;;5074938;28;20364;-82
2021/01/02 04:35:38;;;;;;;20.70;17.00;;;;;;;;;;5093026;28;20377;-81
2021/01/02 04:38:04;;;;;;;22.70;18.25;;;;;;;;;;5075030;28;20398;-81
2021/01/02 04:40:31;;;;;;;23.95;19.15;;;;;;;;;;5092676;28;20851;-81
2021/01/02 04:42:57;;;;;;;22.30;19.00;;;;;;;;;;5093467;28;20372;-81
2021/01/02 04:45:24;;;;;;;22.40;18.77;;;;;;;;;;5093244;28;20866;-81
2021/01/02 04:47:51;;;;;;;23.98;18.35;;;;;;;;;;5076077;28;20396;-81
2021/01/02 04:50:18;;;;;;;21.17;18.17;;;;;;;;;;5075966;28;20369;-81
2021/01/02 04:52:45;;;;;;;22.65;18.38;;;;;;;;;;5100947;28;20365;-81
2021/01/02 04:55:12;;;;;;;22.33;17.90;;;;;;;;;;5074732;28;20383;-82
2021/01/02 04:57:40;;;;;;;19.10;16.85;;;;;;;;;;5075385;28;20467;-81
2021/01/02 05:00:07;;;;;;;21.92;17.52;;;;;;;;;;5074301;28;20522;-81
2021/01/02 05:02:33;;;;;;;20.55;17.10;;;;;;;;;;5092389;28;20373;-79
2021/01/02 05:05:00;;;;;;;21.70;17.17;;;;;;;;;;5074441;28;20733;-81
2021/01/02 05:07:27;;;;;;;21.20;17.37;;;;;;;;;;5074330;28;20372;-81
2021/01/02 05:09:53;;;;;;;22.10;17.60;;;;;;;;;;5074113;28;20420;-81
2021/01/02 05:12:26;;;;;;;21.25;17.83;;;;;;;;;;5073990;28;20391;-81
2021/01/02 05:15:09;;;;;;;21.08;17.77;;;;;;;;;;5092402;28;20392;-81
2021/01/02 05:17:36;;;;;;;21.00;17.60;;;;;;;;;;5074262;28;20373;-81
2021/01/02 05:20:03;;;;;;;20.73;17.05;;;;;;;;;;5073784;28;20908;-81
2021/01/02 05:22:30;;;;;;;23.02;18.75;;;;;;;;;;5073771;28;20474;-81
2021/01/02 05:25:06;;;;;;;23.58;19.58;;;;;;;;;;5092648;28;20789;-82
2021/01/02 05:27:33;;;;;;;21.33;18.45;;;;;;;;;;5073726;28;20365;-82
2021/01/02 05:30:31;;;;;;;20.30;17.90;;;;;;;;;;5073691;28;20369;-82
2021/01/02 05:32:59;;;;;;;22.75;18.58;;;;;;;;;;5019942;28;20365;-82
2021/01/02 05:35:25;;;;;;;21.30;18.05;;;;;;;;;;5092018;28;20372;-82
2021/01/02 05:37:52;;;;;;;22.63;18.48;;;;;;;;;;5074050;28;20372;-81
2021/01/02 05:40:37;;;;;;;22.10;17.75;;;;;;;;;;5073358;28;20368;-82
2021/01/02 05:43:03;;;;;;;22.02;18.33;;;;;;;;;;5073605;28;20518;-80
2021/01/02 05:45:29;;;;;;;22.75;18.70;;;;;;;;;;5073428;28;20993;-81
2021/01/02 05:48:10;;;;;;;20.85;17.70;;;;;;;;;;5073752;28;20862;-81
2021/01/02 05:50:41;;;;;;;21.45;17.92;;;;;;;;;;5091646;28;20411;-82
2021/01/02 05:53:16;;;;;;;22.52;18.45;;;;;;;;;;5091887;28;20360;-82
2021/01/02 05:55:42;;;;;;;23.52;19.13;;;;;;;;;;5073745;28;20369;-83
2021/01/02 05:58:18;;;;;;;19.45;17.35;;;;;;;;;;5073516;28;20429;-82
2021/01/02 06:00:45;;;;;;;22.55;18.95;;;;;;;;;;5073217;28;20359;-81
2021/01/02 06:03:41;;;;;;;19.73;17.03;;;;;;;;;;5091458;28;20403;-82
2021/01/02 06:06:11;;;;;;;19.63;17.52;;;;;;;;;;5051952;28;20435;-82
2021/01/02 06:08:40;;;;;;;21.80;18.13;;;;;;;;;;5092373;28;21579;-81
2021/01/02 06:11:10;;;;;;;21.80;18.33;;;;;;;;;;5072876;28;20369;-80
2021/01/02 06:13:38;;;;;;;21.67;17.75;;;;;;;;;;5073032;28;20376;-81
2021/01/02 06:16:06;;;;;;;22.33;18.90;;;;;;;;;;5073084;28;20372;-81
2021/01/02 06:18:39;;;;;;;20.65;18.42;;;;;;;;;;5072709;28;20372;-81
2021/01/02 06:21:09;;;;;;;20.20;17.65;;;;;;;;;;5072604;28;20372;-81
2021/01/02 06:23:36;;;;;;;22.10;18.80;;;;;;;;;;5091339;28;20357;-81
2021/01/02 06:26:04;;;;;;;20.95;17.92;;;;;;;;;;5072759;28;20743;-81
2021/01/02 06:28:31;;;;;;;21.35;18.40;;;;;;;;;;5091322;28;20447;-81
2021/01/02 06:31:01;;;;;;;23.17;18.50;;;;;;;;;;5072371;28;20434;-81
2021/01/02 06:33:28;;;;;;;20.33;17.70;;;;;;;;;;5072556;28;20787;-81
2021/01/02 06:35:54;;;;;;;20.98;18.70;;;;;;;;;;5072730;28;20886;-81
2021/01/02 06:38:23;;;;;;;23.50;20.08;;;;;;;;;;5091303;28;20484;-80
2021/01/02 06:40:50;;;;;;;24.08;19.52;;;;;;;;;;5072070;28;20352;-82
2021/01/02 06:43:20;;;;;;;22.20;17.67;;;;;;;;;;5072644;28;20387;-82
2021/01/02 06:46:05;;;;;;;24.15;19.42;;;;;;;;;;5072602;28;20388;-82
2021/01/02 06:48:32;;;;;;;21.52;19.00;;;;;;;;;;5090967;28;20412;-82
2021/01/02 06:50:58;;;;;;;22.45;19.55;;;;;;;;;;5090425;28;20372;-81
2021/01/02 06:53:25;;;;;;;22.80;19.10;;;;;;;;;;5072513;28;20368;-82
2021/01/02 06:56:01;;;;;;;19.67;17.58;;;;;;;;;;5072972;28;20404;-81
2021/01/02 06:58:36;;;;;;;24.90;19.98;;;;;;;;;;5090944;28;20373;-81
2021/01/02 07:01:03;;;;;;;24.27;20.02;;;;;;;;;;5072526;28;20410;-82
2021/01/02 07:03:47;;;;;;;22.75;18.95;;;;;;;;;;5091658;28;20418;-80
2021/01/02 07:08:49;;;;;;;21.92;19.25;;;;;;;;;;5090297;28;20441;-80
2021/01/02 07:11:25;;;;;;;22.40;18.38;;;;;;;;;;5072408;28;21003;-81
2021/01/02 07:14:20;;;;;;;22.77;18.92;;;;;;;;;;5072230;28;20885;-80
2021/01/02 07:16:51;;;;;;;22.10;18.77;;;;;;;;;;5072316;28;20854;-82
2021/01/02 07:19:29;;;;;;;23.38;19.05;;;;;;;;;;5071863;28;20399;-80
2021/01/02 07:22:03;;;;;;;22.17;18.55;;;;;;;;;;5072139;28;20878;-80
2021/01/02 07:24:29;;;;;;;21.98;18.75;;;;;;;;;;5071993;28;20395;-81
2021/01/02 07:26:58;;;;;;;20.70;18.48;;;;;;;;;;5090177;28;20364;-81
2021/01/02 07:29:24;;;;;;;20.30;17.80;;;;;;;;;;5071686;28;20597;-81
2021/01/02 07:31:51;;;;;;;20.02;17.77;;;;;;;;;;5090055;28;20360;-81
2021/01/02 07:34:20;;;;;;;24.05;20.65;;;;;;;;;;5072104;28;20392;-81
2021/01/02 07:36:47;;;;;;;22.70;19.30;;;;;;;;;;5071981;28;20372;-81
2021/01/02 07:39:13;;;;;;;22.25;19.33;;;;;;;;;;5089712;28;20368;-81
2021/01/02 07:41:40;;;;;;;20.35;18.15;;;;;;;;;;5089956;28;20380;-81
2021/01/02 07:44:06;;;;;;;23.63;19.85;;;;;;;;;;5089816;28;20853;-80
2021/01/02 07:46:33;;;;;;;60.25;42.30;;;;;;;;;;5072021;28;20443;-82
2021/01/02 07:48:59;;;;;;;34.92;26.58;;;;;;;;;;5071312;28;20372;-81
2021/01/02 07:51:28;;;;;;;23.73;20.40;;;;;;;;;;5073476;28;20379;-81
2021/01/02 07:53:54;;;;;;;23.30;20.27;;;;;;;;;;5075417;28;20365;-81
2021/01/02 07:56:34;;;;;;;24.40;20.92;;;;;;;;;;5093572;28;20440;-81
2021/01/02 07:59:18;;;;;;;25.55;19.70;;;;;;;;;;5075199;28;20365;-81
2021/01/02 08:01:48;;;;;;;25.10;20.30;;;;;;;;;;5075152;28;20412;-83
2021/01/02 08:04:15;;;;;;;23.77;20.08;;;;;;;;;;5075179;28;20360;-83
2021/01/02 08:06:51;;;;;;;21.33;18.95;;;;;;;;;;5075067;28;20886;-84
2021/01/02 08:09:17;;;;;;;21.63;18.80;;;;;;;;;;5092885;28;20363;-83
2021/01/02 08:11:57;;;;;;;21.52;18.88;;;;;;;;;;5075350;28;20665;-81
2021/01/02 08:14:24;;;;;;;21.20;18.75;;;;;;;;;;5074899;28;20373;-81
2021/01/02 08:16:56;;;;;;;24.15;19.67;;;;;;;;;;5093123;28;20379;-81
2021/01/02 08:19:22;;;;;;;22.45;19.52;;;;;;;;;;5074593;28;20365;-80
2021/01/02 08:21:48;;;;;;;26.23;20.55;;;;;;;;;;5074753;28;20361;-81
2021/01/02 08:24:14;;;;;;;23.83;19.30;;;;;;;;;;5092861;28;20895;-82
2021/01/02 08:26:42;;;;;;;21.33;18.45;;;;;;;;;;5074970;28;20676;-84
2021/01/02 08:29:08;;;;;;;23.88;18.75;;;;;;;;;;5074924;28;20367;-82
2021/01/02 08:31:36;;;;;;;23.07;18.90;;;;;;;;;;5075061;28;20389;-83
2021/01/02 08:34:02;;;;;;;21.38;17.90;;;;;;;;;;5092873;28;20364;-82
2021/01/02 08:36:28;;;;;;;22.00;18.40;;;;;;;;;;5074461;28;20369;-81
2021/01/02 08:38:59;;;;;;;22.77;18.75;;;;;;;;;;5074859;28;20873;-81
2021/01/02 08:41:26;;;;;;;22.55;19.25;;;;;;;;;;5074795;28;20471;-84
2021/01/02 08:43:54;;;;;;;22.73;18.75;;;;;;;;;;5075159;28;20365;-88
2021/01/02 08:46:24;;;;;;;21.05;18.17;;;;;;;;;;5092605;28;20396;-89
2021/01/02 08:48:50;;;;;;;21.33;18.23;;;;;;;;;;5074821;28;20791;-86
2021/01/02 08:51:26;;;;;;;20.27;17.42;;;;;;;;;;5074547;28;20912;-88
2021/01/02 08:53:52;;;;;;;22.70;19.10;;;;;;;;;;5075869;28;20450;-82
2021/01/02 08:56:26;;;;;;;21.05;18.08;;;;;;;;;;5094294;28;20433;-86
2021/01/02 08:58:53;;;;;;;22.87;18.30;;;;;;;;;;5076226;28;20361;-83
2021/01/02 09:01:19;;;;;;;24.00;20.35;;;;;;;;;;5075711;28;20666;-81
2021/01/02 09:03:45;;;;;;;21.20;18.63;;;;;;;;;;5075026;28;20380;-85
2021/01/02 09:06:27;;;;;;;24.13;19.35;;;;;;;;;;5075727;28;20910;-82
2021/01/02 09:09:06;;;;;;;21.10;18.50;;;;;;;;;;5075323;28;20400;-87
2021/01/02 09:11:48;;;;;;;23.38;19.38;;;;;;;;;;5064376;28;20378;-89
2021/01/02 09:14:14;;;;;;;20.60;18.00;;;;;;;;;;5072047;28;20370;-81
2021/01/02 09:16:40;;;;;;;22.92;18.63;;;;;;;;;;5072641;28;20458;-87
2021/01/02 09:19:06;;;;;;;22.25;18.40;;;;;;;;;;5075069;28;20365;-85
2021/01/02 09:21:32;;;;;;;21.27;18.77;;;;;;;;;;5075754;28;20426;-83
2021/01/02 09:23:59;;;;;;;20.80;17.70;;;;;;;;;;5093225;28;20433;-85
2021/01/02 09:26:26;;;;;;;22.08;18.27;;;;;;;;;;5073534;28;20395;-86
2021/01/02 09:28:53;;;;;;;21.25;18.20;;;;;;;;;;5073902;28;20372;-82
2021/01/02 09:31:20;;;;;;;22.10;18.80;;;;;;;;;;5067437;28;20494;-84
2021/01/02 09:33:46;;;;;;;19.95;17.83;;;;;;;;;;5077061;28;20374;-84
2021/01/02 09:36:16;;;;;;;22.60;20.00;;;;;;;;;;5075558;28;20372;-84
2021/01/02 09:38:45;;;;;;;21.95;18.80;;;;;;;;;;5086630;28;20370;-82
2021/01/02 09:41:12;;;;;;;21.10;18.80;;;;;;;;;;5080950;28;20373;-83
2021/01/02 09:43:38;;;;;;;21.75;19.23;;;;;;;;;;5090908;28;20851;-85
2021/01/02 09:46:04;;;;;;;20.60;18.25;;;;;;;;;;5070204;28;20400;-81
2021/01/02 09:48:30;;;;;;;21.55;18.10;;;;;;;;;;5058237;28;20369;-84
2021/01/02 09:50:56;;;;;;;21.35;18.52;;;;;;;;;;5089851;28;20356;-82
2021/01/02 09:53:23;;;;;;;22.67;19.27;;;;;;;;;;5089492;28;20368;-80
2021/01/02 09:55:49;;;;;;;26.58;21.77;;;;;;;;;;5091802;28;20450;-80
2021/01/02 09:58:15;;;;;;;22.88;18.83;;;;;;;;;;5090082;28;20718;-81
2021/01/02 10:00:41;;;;;;;23.67;20.38;;;;;;;;;;5087370;28;20965;-81
2021/01/02 10:03:09;;;;;;;22.80;19.45;;;;;;;;;;5089961;28;20855;-80
2021/01/02 10:05:35;;;;;;;26.83;21.10;;;;;;;;;;5071483;28;20400;-81
2021/01/02 10:08:02;;;;;;;22.77;19.50;;;;;;;;;;5067646;28;20368;-80
2021/01/02 10:10:30;;;;;;;21.88;19.10;;;;;;;;;;5078863;28;20412;-82
2021/01/02 10:12:56;;;;;;;22.25;19.13;;;;;;;;;;5059664;28;20373;-81
2021/01/02 10:15:22;;;;;;;23.67;19.45;;;;;;;;;;5090233;28;20380;-80
2021/01/02 10:17:49;;;;;;;21.33;18.52;;;;;;;;;;5082746;28;20417;-81
2021/01/02 10:20:15;;;;;;;22.42;19.98;;;;;;;;;;5068484;28;20409;-81
2021/01/02 10:22:41;;;;;;;22.08;18.70;;;;;;;;;;5053150;28;20773;-81
2021/01/02 10:25:08;;;;;;;21.27;18.93;;;;;;;;;;5069731;28;20392;-80
2021/01/02 10:27:34;;;;;;;23.65;20.00;;;;;;;;;;5086034;28;20817;-81
2021/01/02 10:30:00;;;;;;;22.15;19.27;;;;;;;;;;5068802;28;20425;-80
2021/01/02 10:32:27;;;;;;;23.75;20.63;;;;;;;;;;5068841;28;20467;-81
2021/01/02 10:34:53;;;;;;;21.75;19.40;;;;;;;;;;5056733;28;20378;-81
2021/01/02 10:37:20;;;;;;;24.15;20.02;;;;;;;;;;5084596;28;20363;-81
2021/01/02 10:39:46;;;;;;;24.90;20.90;;;;;;;;;;5072798;28;20705;-81
2021/01/02 10:42:13;;;;;;;26.20;21.77;;;;;;;;;;5080904;28;20869;-81
2021/01/02 10:44:43;;;;;;;26.15;22.65;;;;;;;;;;5062432;28;20396;-80
2021/01/02 10:47:09;;;;;;;26.90;22.20;;;;;;;;;;5073739;28;20869;-84
2021/01/02 10:49:35;;;;;;;26.83;21.67;;;;;;;;;;5083353;28;20381;-85
2021/01/02 10:52:01;;;;;;;26.50;21.20;;;;;;;;;;5067203;28;20431;-84
2021/01/02 10:54:27;;;;;;;25.05;20.90;;;;;;;;;;5066414;28;20405;-82
2021/01/02 10:56:54;;;;;;;27.02;22.20;;;;;;;;;;5173505;22;20733;-88
2021/01/02 10:59:22;;;;;;;27.42;22.52;;;;;;;;;;5003584;28;20402;-90
2021/01/02 11:01:49;;;;;;;28.35;23.98;;;;;;;;;;5008110;28;20371;-90
2021/01/02 11:04:16;;;;;;;29.95;22.48;;;;;;;;;;5032271;28;20362;-89
2021/01/02 11:06:43;;;;;;;25.88;21.50;;;;;;;;;;5018316;28;20374;-91
2021/01/02 11:09:12;;;;;;;26.60;21.97;;;;;;;;;;5032603;28;20820;-89
2021/01/02 11:11:39;;;;;;;24.58;20.17;;;;;;;;;;5016366;28;20350;-87
2021/01/02 11:14:05;;;;;;;25.38;20.67;;;;;;;;;;5016048;28;20435;-87
2021/01/02 11:16:32;;;;;;;24.13;20.23;;;;;;;;;;5031981;28;20456;-87
2021/01/02 11:19:00;;;;;;;23.08;19.75;;;;;;;;;;5002765;28;20402;-86
2021/01/02 11:21:26;;;;;;;21.73;19.08;;;;;;;;;;5007488;28;20364;-86
2021/01/02 11:23:53;;;;;;;23.40;20.27;;;;;;;;;;5011638;28;20868;-86
2021/01/02 11:26:19;;;;;;;25.48;19.02;;;;;;;;;;5022048;28;20409;-86
2021/01/02 11:28:45;;;;;;;22.88;18.45;;;;;;;;;;5016576;28;20389;-88
2021/01/02 11:31:12;;;;;;;21.58;18.00;;;;;;;;;;5033462;28;20362;-83
2021/01/02 11:33:38;;;;;;;24.27;19.75;;;;;;;;;;5028825;28;20421;-88
2021/01/02 11:36:04;;;;;;;23.63;18.92;;;;;;;;;;5013797;28;20415;-85
2021/01/02 11:38:31;;;;;;;21.48;18.33;;;;;;;;;;5034707;28;20365;-87
2021/01/02 11:40:57;;;;;;;22.75;18.83;;;;;;;;;;5016212;28;20377;-84
2021/01/02 11:43:23;;;;;;;22.52;18.83;;;;;;;;;;5035353;28;20373;-87
2021/01/02 11:45:50;;;;;;;21.90;18.75;;;;;;;;;;5017706;28;20401;-87
2021/01/02 11:48:17;;;;;;;23.67;19.35;;;;;;;;;;5024628;28;20739;-90
2021/01/02 11:50:44;;;;;;;24.73;19.38;;;;;;;;;;5013037;28;20381;-91
2021/01/02 11:53:10;;;;;;;26.03;20.87;;;;;;;;;;5014584;28;21006;-86
2021/01/02 11:55:36;;;;;;;24.40;20.65;;;;;;;;;;5010033;28;20395;-84
2021/01/02 11:58:02;;;;;;;25.10;21.27;;;;;;;;;;5020181;28;20386;-89
2021/01/02 12:00:30;;;;;;;23.52;20.60;;;;;;;;;;5034963;28;20357;-86
2021/01/02 12:02:56;;;;;;;26.40;21.50;;;;;;;;;;4999682;28;20889;-91
2021/01/02 12:05:23;;;;;;;28.50;22.30;;;;;;;;;;4996303;28;21260;-84
2021/01/02 12:07:50;;;;;;;24.58;21.00;;;;;;;;;;4991801;28;20511;-85
2021/01/02 12:10:16;;;;;;;24.90;19.63;;;;;;;;;;5017419;28;20370;-85
2021/01/02 12:12:43;;;;;;;23.95;19.40;;;;;;;;;;4988934;28;20506;-85
2021/01/02 12:15:09;;;;;;;23.83;19.90;;;;;;;;;;5009624;28;20481;-84
2021/01/02 12:17:38;;;;;;;24.35;18.85;;;;;;;;;;5011855;28;20394;-86
2021/01/02 12:20:04;;;;;;;21.98;18.35;;;;;;;;;;5006693;28;20445;-84
2021/01/02 12:22:31;;;;;;;20.77;17.50;;;;;;;;;;4992035;28;20455;-90
2021/01/02 12:24:57;;;;;;;21.70;17.92;;;;;;;;;;5010794;28;20423;-85
2021/01/02 12:27:23;;;;;;;22.17;19.52;;;;;;;;;;5000447;28;20413;-85
2021/01/02 12:29:50;;;;;;;20.73;18.00;;;;;;;;;;5006615;28;20403;-86
2021/01/02 12:32:16;;;;;;;22.33;18.42;;;;;;;;;;4989557;28;20462;-86
2021/01/02 12:34:44;;;;;;;21.30;17.98;;;;;;;;;;4997041;28;20869;-90
2021/01/02 12:37:12;;;;;;;20.88;17.77;;;;;;;;;;5012900;28;20454;-92
2021/01/02 12:39:39;;;;;;;19.10;17.00;;;;;;;;;;4985116;28;20379;-87
2021/01/02 12:42:05;;;;;;;21.03;18.00;;;;;;;;;;5012257;28;20890;-87
2021/01/02 12:44:32;;;;;;;20.98;18.42;;;;;;;;;;4992435;28;20390;-92
2021/01/02 12:47:05;;;;;;;21.75;19.00;;;;;;;;;;4995274;28;20392;-91
2021/01/02 12:49:34;;;;;;;21.05;18.25;;;;;;;;;;4995010;28;20446;-90
2021/01/02 12:52:01;;;;;;;21.60;17.80;;;;;;;;;;4991142;28;20378;-90
2021/01/02 12:54:28;;;;;;;20.30;17.48;;;;;;;;;;4990009;28;20375;-90
2021/01/02 12:56:54;;;;;;;20.70;17.77;;;;;;;;;;5009174;28;20376;-87
2021/01/02 12:59:21;;;;;;;19.90;17.30;;;;;;;;;;5012123;28;20440;-83
2021/01/02 13:01:48;;;;;;;18.98;16.85;;;;;;;;;;5009300;28;20390;-82
2021/01/02 13:04:14;;;;;;;21.85;18.33;;;;;;;;;;4991271;28;20386;-85
2021/01/02 13:06:40;;;;;;;23.93;19.40;;;;;;;;;;4991173;28;20441;-83
2021/01/02 13:09:07;;;;;;;23.50;19.98;;;;;;;;;;5007928;28;20418;-84
2021/01/02 13:11:34;;;;;;;19.97;17.57;;;;;;;;;;4993237;28;20475;-86
2021/01/02 13:14:00;;;;;;;21.77;17.97;;;;;;;;;;4992186;28;20448;-86
2021/01/02 13:16:26;;;;;;;20.40;17.27;;;;;;;;;;5009281;28;20498;-84
2021/01/02 13:18:52;;;;;;;22.50;19.27;;;;;;;;;;5008519;28;20431;-85
2021/01/02 13:21:18;;;;;;;23.20;19.47;;;;;;;;;;5007852;28;20414;-84
2021/01/02 13:23:44;;;;;;;23.70;20.08;;;;;;;;;;4990803;28;20470;-84
2021/01/02 13:26:11;;;;;;;21.92;19.10;;;;;;;;;;4991297;28;20497;-84
2021/01/02 13:28:41;;;;;;;24.08;20.45;;;;;;;;;;4991491;28;20788;-83
2021/01/02 13:31:07;;;;;;;24.30;19.58;;;;;;;;;;5009739;28;20374;-85
2021/01/02 13:33:34;;;;;;;23.67;20.75;;;;;;;;;;4991759;28;20375;-86
2021/01/02 13:36:00;;;;;;;21.98;18.40;;;;;;;;;;5009014;28;20378;-86
2021/01/02 13:38:26;;;;;;;22.23;19.58;;;;;;;;;;4991288;28;20383;-86
2021/01/02 13:40:52;;;;;;;19.70;17.52;;;;;;;;;;5009462;28;20360;-85
2021/01/02 13:43:18;;;;;;;21.10;17.45;;;;;;;;;;5009065;28;20367;-86
2021/01/02 13:45:44;;;;;;;21.60;17.98;;;;;;;;;;4991419;28;20634;-87
2021/01/02 13:48:10;;;;;;;20.77;17.63;;;;;;;;;;4987256;28;20384;-86
2021/01/02 13:50:38;;;;;;;21.27;18.43;;;;;;;;;;4989449;28;20422;-86
2021/01/02 13:53:05;;;;;;;21.55;18.23;;;;;;;;;;4989216;28;20372;-85
2021/01/02 13:55:31;;;;;;;20.52;17.63;;;;;;;;;;4987814;28;20397;-86
2021/01/02 13:58:00;;;;;;;18.67;16.08;;;;;;;;;;4987825;28;20398;-86
2021/01/02 14:00:26;;;;;;;20.55;17.15;;;;;;;;;;4987420;28;20376;-85
2021/01/02 14:02:52;;;;;;;21.42;17.80;;;;;;;;;;4989473;28;20373;-85
2021/01/02 14:05:18;;;;;;;19.40;16.63;;;;;;;;;;4988413;28;20404;-86
2021/01/02 14:07:46;;;;;;;19.05;16.25;;;;;;;;;;4988041;28;20428;-87
2021/01/02 14:10:12;;;;;;;23.13;18.65;;;;;;;;;;4989130;28;20422;-86
2021/01/02 14:12:38;;;;;;;19.85;17.75;;;;;;;;;;4989356;28;20782;-86
2021/01/02 14:15:05;;;;;;;18.70;16.67;;;;;;;;;;4989813;28;20866;-86
2021/01/02 14:17:31;;;;;;;20.23;16.77;;;;;;;;;;4988235;28;20460;-86
2021/01/02 14:19:57;;;;;;;21.25;17.63;;;;;;;;;;4989597;28;20764;-85
2021/01/02 14:22:23;;;;;;;21.08;18.27;;;;;;;;;;4987292;28;20927;-86
2021/01/02 14:24:50;;;;;;;20.80;18.17;;;;;;;;;;4987499;28;20729;-87
2021/01/02 14:27:17;;;;;;;23.73;19.63;;;;;;;;;;4978338;28;20377;-87